• Join FlightAware (Why Join?)
  • Login
  • US Flag 
04:43PM EDT


 

Airport Tracker/Info


-or-


 

Live Flight TrackerFlight Track Log ✈ DAL1758 ✈ 11-May-2013 ✈ KCHS - KATL

Flight Track Log - Related Links

Times and Time Zones

All times are in EDT time to prevent confusion due to time zone crossing. See the DAL1758 flight status page for this flight to view local times or setup timezone preferences in your user account.

Time Position Orientation Groundspeed Altitude Reporting Facility
EDT Latitude Longitude Course Direction KTS MPH feet Rate Location/Type
05:42AM 32.8692 -80.1350 275° West 251 289 4,700  Level Jacksonville Center
05:43AM 32.8750 -80.2139 275° West 257 296 9,400 3,300 Climbing Jacksonville Center
05:44AM 32.8667 -80.3056 264° West 257 296 11,400 2,280 Climbing Jacksonville Center
05:45AM 32.8542 -80.4222 263° West 298 343 14,000 2,460 Climbing Jacksonville Center
05:46AM 32.8439 -80.5289 263° West 345 397 16,400 2,700 Climbing Jacksonville Center
05:47AM 32.8294 -80.6553 262° West 371 427 19,400 2,700 Climbing Jacksonville Center
05:48AM 32.8169 -80.7817 263° West 384 442 21,800 1,200 Climbing Jacksonville Center
05:49AM 32.8003 -80.9081 261° West 390 449 21,900  Climbing Jacksonville Center
05:50AM 32.7856 -81.0394 262° West 390 449 21,900  Level Jacksonville Center
05:51AM 32.7706 -81.1681 262° West 390 449 22,000  Climbing Jacksonville Center
05:52AM 32.7578 -81.2967 263° West 390 449 21,900  Descending Jacksonville Center
05:54AM 32.7253 -81.5400 261° West 386 444 22,000  Climbing Atlanta Center
05:55AM 32.7089 -81.6664 261° West 394 453 22,000  Level Atlanta Center
05:56AM 32.6947 -81.7953 263° West 394 453 22,000  Level Atlanta Center
05:57AM 32.6781 -81.9214 261° West 394 453 22,000  Level Atlanta Center
05:58AM 32.6614 -82.0478 261° West 389 448 22,000  Level Atlanta Center
05:59AM 32.6489 -82.1786 264° West 389 448 22,000 -120 Level Atlanta Center
06:00AM 32.6881 -82.2989 291° West 389 448 21,800 -1,020 Descending Atlanta Center
06:01AM 32.7317 -82.4189 293° West 384 442 20,000 -1,500 Descending Atlanta Center
06:02AM 32.7728 -82.5344 293° West 389 448 18,900 -1,320 Descending Atlanta Center
06:03AM 32.8158 -82.6547 293° West 389 448 17,400 -840 Descending Atlanta Center
06:04AM 32.8567 -82.7678 293° West 389 448 17,300 -240 Descending Atlanta Center
06:05AM 32.8956 -82.8836 292° West 389 448 17,000 -480 Descending Atlanta Center
06:06AM 32.9339 -82.9969 292° West 383 441 16,400 -660 Descending Atlanta Center
06:07AM 32.9744 -83.1078 294° West 373 429 15,700 -720 Descending Atlanta Center
06:08AM 33.0131 -83.2189 293° West 373 429 15,000 -780 Descending Atlanta Center
06:09AM 33.0556 -83.3400 293° West 373 429 14,200 -900 Descending Atlanta Center
06:10AM 33.0936 -83.4436 294° West 355 409 13,200 -1,140 Descending Atlanta Center
06:11AM 33.1231 -83.5353 291° West 322 371 12,000 -600 Descending Atlanta Center
06:12AM 33.1569 -83.6294 293° West 312 359 12,000 -360 Level Atlanta Center
06:13AM 33.1844 -83.7136 291° West 291 335 11,300 -840 Descending Atlanta Center
06:13AM 33.1833 -83.7333 266° West 273 314 11,000 -360 Descending Atlanta TRACON
06:14AM 33.2167 -83.8167 296° West 262 302 10,900 -780 Descending Atlanta TRACON
06:15AM 33.2667 -83.8667 320° Northwest 266 306 9,700 -1,620 Descending Atlanta TRACON
06:16AM 33.3000 -83.9500 296° West 275 316 8,000 -840 Descending Atlanta TRACON
06:17AM 33.3833 -83.9833 342° North 283 326 8,000  Level Atlanta TRACON
06:18AM 33.4394 -84.0014 345° North 278 320 8,000 -720 Level Atlanta Center
06:19AM 33.5144 -84.0339 340° North 278 320 6,700 -1,500 Descending Atlanta Center
06:20AM 33.5792 -84.0761 331° Northwest 268 308 5,100 -1,380 Descending Atlanta Center
06:21AM 33.6294 -84.1461 311° West 253 291 4,000 -900 Descending Atlanta Center
06:21AM 33.6333 -84.1667 283° West 227 261 4,000 -120 Level Atlanta TRACON
06:22AM 33.6500 -84.2167 292° West 195 224 3,900 -540 Descending Atlanta TRACON
06:23AM 33.6500 -84.2833 270° West 183 211 3,000 -900 Descending Atlanta TRACON